Station History

Weather Underground - logo

Station Historical Data
Daily Summary for February 18, 2018 Units:  Metric    English   Both
« Previous Day
Next Day »
Daily Weekly Monthly Yearly Custom
  High: Low: Average:
Temperature: 20.4 °C 3.9 °C 12.2 °C
Dew Point: 5.1 °C 0.3 °C 2.9 °C
Humidity: 86 % 33 % 56 %
Wind Speed: 20.4 km/h 0 km/h 5.6 km/h
Wind Gust: 20.4 km/h - -
Wind:- - WNW
Pressure: 1016.1 hPa 1009.7 hPa -
Precipitation: 0 mm    
Historical Graphs
 
 
Tabular Data for February 18, 2018
Time Temperature Dew Point Pressure Wind Wind Speed Wind Gust Humidity Rainfall Rate (Hourly)
00:01 6.2 °C 2.8 °C 1016.1 hPa Calm     79 % 0 mm
00:06 6.2 °C 2.8 °C 1016.1 hPa Calm     79 % 0 mm
00:11 6.1 °C 2.7 °C 1016.1 hPa Calm     79 % 0 mm
00:16 5.9 °C 2.5 °C 1016.1 hPa Calm     79 % 0 mm
00:21 5.7 °C 2.5 °C 1016.1 hPa Calm     80 % 0 mm
00:26 5.5 °C 2.5 °C 1016.1 hPa Calm     81 % 0 mm
00:31 5.6 °C 2.9 °C 1016.1 hPa Calm     83 % 0 mm
00:37 5.6 °C 2.6 °C 1015.8 hPa Calm     81 % 0 mm
00:42 5.4 °C 2.8 °C 1015.8 hPa Calm     83 % 0 mm
00:47 5.3 °C 2.4 °C 1015.8 hPa Calm     82 % 0 mm
00:52 5.2 °C 2.5 °C 1015.8 hPa Calm     83 % 0 mm
00:57 5.3 °C 2.8 °C 1015.8 hPa Calm     84 % 0 mm
01:02 5.3 °C 2.7 °C 1015.8 hPa Calm     83 % 0 mm
01:07 5.4 °C 2.7 °C 1015.8 hPa Calm     83 % 0 mm
01:12 5.3 °C 2.5 °C 1015.8 hPa Calm     82 % 0 mm
01:17 5.2 °C 2.3 °C 1015.8 hPa Calm     82 % 0 mm
01:22 5.1 °C 2.4 °C 1015.8 hPa Calm     83 % 0 mm
01:27 4.9 °C 2.3 °C 1015.8 hPa Calm     83 % 0 mm
01:32 4.9 °C 2.2 °C 1015.8 hPa Calm     83 % 0 mm
01:37 4.8 °C 2.1 °C 1015.8 hPa Calm     83 % 0 mm
01:42 4.8 °C 2.3 °C 1015.8 hPa Calm     84 % 0 mm
01:47 4.9 °C 2.4 °C 1015.8 hPa Calm     84 % 0 mm
01:52 5 °C 2.5 °C 1015.8 hPa Calm     84 % 0 mm
01:58 5.2 °C 2.7 °C 1015.8 hPa Calm     84 % 0 mm
02:03 5.4 °C 2.7 °C 1015.8 hPa Calm     83 % 0 mm
02:08 5.4 °C 2.6 °C 1015.5 hPa Calm     82 % 0 mm
02:13 5.2 °C 2.6 °C 1015.5 hPa Calm     83 % 0 mm
02:18 5.3 °C 2.7 °C 1015.8 hPa Calm     83 % 0 mm
02:23 5.5 °C 2.7 °C 1015.8 hPa Calm     82 % 0 mm
02:28 5.7 °C 2.7 °C 1015.8 hPa Calm     81 % 0 mm
02:33 5.9 °C 2.7 °C 1015.8 hPa NNW 1.9 km/h 1.9 km/h 80 % 0 mm
02:38 6.1 °C 2.7 °C 1015.8 hPa NNW 3.7 km/h 3.7 km/h 79 % 0 mm
02:43 6.3 °C 2.7 °C 1015.8 hPa NW 1.9 km/h 1.9 km/h 78 % 0 mm
02:48 6.6 °C 2.6 °C 1015.5 hPa NW 1.9 km/h 1.9 km/h 76 % 0 mm
02:53 6.7 °C 2.6 °C 1015.5 hPa NW 1.9 km/h   75 % 0 mm
02:58 6.8 °C 2.5 °C 1015.5 hPa Calm     74 % 0 mm
03:03 6.9 °C 2.4 °C 1015.5 hPa NW 1.9 km/h 1.9 km/h 73 % 0 mm
03:08 7.2 °C 2.4 °C 1015.5 hPa WNW 1.9 km/h 1.9 km/h 72 % 0 mm
03:13 7.5 °C 2.6 °C 1015.5 hPa WNW 1.9 km/h 1.9 km/h 71 % 0 mm
03:18 7.8 °C 2.5 °C 1015.1 hPa NW 1.9 km/h 1.9 km/h 69 % 0 mm
03:23 8.2 °C 2.6 °C 1015.1 hPa NW 1.9 km/h 1.9 km/h 68 % 0 mm
03:28 8.4 °C 2.7 °C 1015.1 hPa WNW 3.7 km/h 3.7 km/h 67 % 0 mm
03:33 8.6 °C 2.6 °C 1015.1 hPa NW 1.9 km/h 1.9 km/h 66 % 0 mm
03:38 8.6 °C 2.6 °C 1015.1 hPa WNW 1.9 km/h   66 % 0 mm
03:43 8.5 °C 2.5 °C 1015.1 hPa Calm     66 % 0 mm
03:48 8.4 °C 2.4 °C 1014.8 hPa WNW 1.9 km/h   66 % 0 mm
03:53 8.3 °C 2.5 °C 1014.8 hPa Calm     67 % 0 mm
03:58 8.2 °C 2.4 °C 1014.8 hPa Calm     67 % 0 mm
04:03 8.1 °C 2.5 °C 1014.8 hPa Calm     68 % 0 mm
04:08 7.7 °C 2.4 °C 1014.8 hPa Calm     69 % 0 mm
04:13 7.4 °C 2.3 °C 1014.8 hPa Calm     70 % 0 mm
04:18 7.1 °C 2.4 °C 1014.8 hPa Calm     72 % 0 mm
04:23 6.6 °C 2.2 °C 1014.8 hPa WNW 1.9 km/h   74 % 0 mm
04:28 5.9 °C 2.1 °C 1014.8 hPa Calm     76 % 0 mm
04:33 5.6 °C 1.8 °C 1014.8 hPa Calm     77 % 0 mm
04:38 5.3 °C 2 °C 1014.8 hPa Calm     79 % 0 mm
04:43 5.1 °C 1.9 °C 1014.8 hPa Calm     80 % 0 mm
04:48 4.9 °C 1.7 °C 1014.8 hPa Calm     80 % 0 mm
04:53 4.8 °C 1.8 °C 1014.8 hPa Calm     81 % 0 mm
04:58 4.6 °C 1.6 °C 1014.8 hPa Calm     81 % 0 mm
05:03 4.4 °C 1.8 °C 1014.8 hPa Calm     83 % 0 mm
05:08 4.5 °C 1.9 °C 1014.4 hPa Calm     83 % 0 mm
05:13 4.3 °C 1.7 °C 1014.4 hPa Calm     83 % 0 mm
05:18 4.2 °C 1.8 °C 1014.1 hPa Calm     84 % 0 mm
05:24 4.2 °C 1.9 °C 1014.1 hPa Calm     85 % 0 mm
05:29 4.2 °C 1.8 °C 1014.1 hPa Calm     84 % 0 mm
05:34 4.3 °C 1.7 °C 1014.1 hPa Calm     83 % 0 mm
05:39 4.4 °C 1.8 °C 1014.1 hPa Calm     83 % 0 mm
05:44 4.3 °C 1.6 °C 1014.1 hPa Calm     82 % 0 mm
05:49 4.3 °C 1.9 °C 1014.1 hPa Calm     84 % 0 mm
05:54 4.2 °C 1.7 °C 1014.1 hPa Calm     84 % 0 mm
05:59 4 °C 1.6 °C 1014.1 hPa Calm     84 % 0 mm
06:04 3.9 °C 1.5 °C 1014.1 hPa Calm     84 % 0 mm
06:09 3.9 °C 1.8 °C 1014.1 hPa Calm     86 % 0 mm
06:14 4 °C 1.9 °C 1013.8 hPa Calm     86 % 0 mm
06:19 4 °C 1.9 °C 1014.1 hPa Calm     86 % 0 mm
06:24 4 °C 1.9 °C 1013.8 hPa Calm     86 % 0 mm
06:29 4 °C 1.9 °C 1013.8 hPa Calm     86 % 0 mm
06:34 4.1 °C 2 °C 1013.8 hPa Calm     86 % 0 mm
06:39 4.4 °C 2 °C 1013.8 hPa Calm     84 % 0 mm
06:44 4.8 °C 2 °C 1013.8 hPa Calm     82 % 0 mm
06:49 5.1 °C 1.9 °C 1013.8 hPa Calm     80 % 0 mm
06:54 5.3 °C 2.3 °C 1013.8 hPa Calm     81 % 0 mm
06:59 5.6 °C 2.4 °C 1014.1 hPa Calm     80 % 0 mm
07:04 5.8 °C 2.6 °C 1014.1 hPa Calm     80 % 0 mm
07:09 5.9 °C 2.8 °C 1014.1 hPa Calm     80 % 0 mm
07:14 6.1 °C 2.9 °C 1014.1 hPa Calm     80 % 0 mm
07:19 6.2 °C 2.9 °C 1014.4 hPa Calm     80 % 0 mm
07:24 6.4 °C 3 °C 1014.4 hPa Calm     79 % 0 mm
07:29 6.6 °C 3.2 °C 1014.8 hPa Calm     79 % 0 mm
07:34 6.8 °C 3.2 °C 1014.8 hPa Calm     78 % 0 mm
07:39 7.2 °C 3.2 °C 1014.8 hPa NNW 1.9 km/h 1.9 km/h 76 % 0 mm
07:44 7.6 °C 3.1 °C 1014.8 hPa Calm     73 % 0 mm
07:49 8.1 °C 3.1 °C 1014.8 hPa NW 3.2 km/h 3.2 km/h 71 % 0 mm
07:54 8.3 °C 3.2 °C 1014.8 hPa Calm     70 % 0 mm
07:59 8.7 °C 3.6 °C 1014.8 hPa Calm     70 % 0 mm
08:04 9.3 °C 3.7 °C 1014.8 hPa WNW 1.9 km/h   68 % 0 mm
08:09 9.7 °C 4.1 °C 1014.8 hPa Calm     68 % 0 mm
08:14 10 °C 3.7 °C 1014.8 hPa WNW 1.9 km/h 1.9 km/h 65 % 0 mm
08:19 10.2 °C 3.7 °C 1014.8 hPa WNW 1.9 km/h 1.9 km/h 64 % 0 mm
08:24 10.7 °C 3.4 °C 1014.8 hPa NW 1.9 km/h 1.9 km/h 61 % 0 mm
08:29 11.3 °C 3.6 °C 1014.8 hPa Calm     59 % 0 mm
08:34 11.8 °C 3.6 °C 1014.8 hPa NW 1.9 km/h 1.9 km/h 57 % 0 mm
08:39 12.4 °C 3.3 °C 1014.8 hPa NW 1.9 km/h   54 % 0 mm
08:44 12.9 °C 3.3 °C 1014.8 hPa NW 1.9 km/h 1.9 km/h 52 % 0 mm
08:49 13.4 °C 3.5 °C 1014.8 hPa Calm     51 % 0 mm
08:54 13.8 °C 3 °C 1014.4 hPa WNW 1.9 km/h 1.9 km/h 48 % 0 mm
08:59 14.2 °C 3.7 °C 1014.4 hPa Calm     49 % 0 mm
09:04 14.8 °C 4.2 °C 1014.4 hPa Calm     49 % 0 mm
09:09 15.3 °C 3.4 °C 1014.4 hPa Calm     45 % 0 mm
09:14 15.4 °C 3.2 °C 1014.4 hPa NW 1.9 km/h 1.9 km/h 44 % 0 mm
09:19 15.6 °C 3.3 °C 1014.4 hPa Calm     44 % 0 mm
09:24 15.8 °C 3.8 °C 1014.1 hPa Calm     45 % 0 mm
09:29 16 °C 2.7 °C 1014.1 hPa WNW 1.9 km/h 1.9 km/h 41 % 0 mm
09:35 16.2 °C 3.3 °C 1014.1 hPa WNW 1.9 km/h 1.9 km/h 42 % 0 mm
09:40 16.7 °C 3 °C 1014.1 hPa Calm     40 % 0 mm
09:45 17.1 °C 3.1 °C 1013.8 hPa South 1.9 km/h   39 % 0 mm
09:50 17.6 °C 3.1 °C 1013.8 hPa SE 1.9 km/h   38 % 0 mm
09:55 17.9 °C 3.4 °C 1014.1 hPa SSE 3.7 km/h 3.7 km/h 38 % 0 mm
10:00 18.2 °C 2.4 °C 1014.1 hPa ENE 1.9 km/h   35 % 0 mm
10:05 18 °C 3.1 °C 1014.1 hPa South 3.7 km/h 3.7 km/h 37 % 0 mm
10:10 18.3 °C 4.1 °C 1014.1 hPa SSE 1.9 km/h 1.9 km/h 39 % 0 mm
10:15 18.6 °C 3.2 °C 1013.8 hPa SSW 3.7 km/h 3.7 km/h 36 % 0 mm
10:20 18.7 °C 2.5 °C 1013.8 hPa WSW 4.8 km/h 4.8 km/h 34 % 0 mm
10:25 18.4 °C 3.1 °C 1013.8 hPa West 1.9 km/h   36 % 0 mm
10:30 18.4 °C 2.7 °C 1013.8 hPa North 1.9 km/h 1.9 km/h 35 % 0 mm
10:35 18.6 °C 4.3 °C 1013.8 hPa WSW 3.7 km/h 3.7 km/h 39 % 0 mm
10:40 18.8 °C 4.2 °C 1013.8 hPa East 5.6 km/h 5.6 km/h 38 % 0 mm
10:45 18.7 °C 4.1 °C 1013.8 hPa WSW 4.8 km/h 4.8 km/h 38 % 0 mm
10:50 18.5 °C 4.3 °C 1013.8 hPa SSE 3.7 km/h 3.7 km/h 39 % 0 mm
10:55 18.6 °C 5.1 °C 1013.8 hPa SSW 3.7 km/h 3.7 km/h 41 % 0 mm
11:00 18.7 °C 4.5 °C 1013.8 hPa WNW 5.6 km/h 5.6 km/h 39 % 0 mm
11:05 18.6 °C 3.9 °C 1013.4 hPa West 3.7 km/h 3.7 km/h 38 % 0 mm
11:10 18.6 °C 3.9 °C 1013.4 hPa NNW 1.9 km/h 1.9 km/h 38 % 0 mm
11:15 18.8 °C 4.2 °C 1013.4 hPa NNW 5.6 km/h 5.6 km/h 38 % 0 mm
11:20 18.8 °C 4.6 °C 1013.4 hPa NW 4.8 km/h 4.8 km/h 39 % 0 mm
11:25 18.9 °C 3.1 °C 1013.1 hPa NNW 5.6 km/h 5.6 km/h 35 % 0 mm
11:30 18.9 °C 4.3 °C 1013.1 hPa Calm     38 % 0 mm
11:35 19.3 °C 4.6 °C 1013.1 hPa ESE 3.7 km/h 3.7 km/h 38 % 0 mm
11:40 19.6 °C 4.4 °C 1013.1 hPa NE 3.7 km/h 3.7 km/h 37 % 0 mm
11:45 19.7 °C 4.6 °C 1013.1 hPa NW 3.7 km/h 3.7 km/h 37 % 0 mm
11:50 19.9 °C 3.6 °C 1013.1 hPa NW 3.7 km/h 3.7 km/h 34 % 0 mm
11:55 19.9 °C 3.2 °C 1012.8 hPa NW 5.6 km/h 5.6 km/h 33 % 0 mm
12:00 19.9 °C 3.6 °C 1012.8 hPa South 3.7 km/h 3.7 km/h 34 % 0 mm
12:05 20.2 °C 4.3 °C 1012.8 hPa NW 5.6 km/h 5.6 km/h 35 % 0 mm
12:10 20.2 °C 4.6 °C 1012.4 hPa NE 5.6 km/h 5.6 km/h 36 % 0 mm
12:15 20.1 °C 4.1 °C 1012.4 hPa WNW 3.7 km/h 3.7 km/h 35 % 0 mm
12:20 20 °C 4.4 °C 1012.4 hPa WNW 7.4 km/h 7.4 km/h 36 % 0 mm
12:25 19.9 °C 4.4 °C 1012.4 hPa West 5.6 km/h 5.6 km/h 36 % 0 mm
12:30 20 °C 4.4 °C 1012.4 hPa NW 7.4 km/h 7.4 km/h 36 % 0 mm
12:35 20 °C 4.4 °C 1012.1 hPa NW 5.6 km/h 5.6 km/h 36 % 0 mm
12:41 20.1 °C 4.6 °C 1012.1 hPa NW 7.4 km/h 7.4 km/h 36 % 0 mm
12:46 20.2 °C 4.6 °C 1012.1 hPa NW 9.3 km/h 9.3 km/h 36 % 0 mm
12:51 20.2 °C 4.3 °C 1012.1 hPa NW 7.4 km/h 7.4 km/h 35 % 0 mm
12:56 20.1 °C 4.2 °C 1011.7 hPa NW 5.6 km/h 5.6 km/h 35 % 0 mm
13:01 20.2 °C 4.6 °C 1011.7 hPa NW 7.4 km/h 7.4 km/h 36 % 0 mm
13:06 20.2 °C 4.2 °C 1011.7 hPa NW 9.3 km/h 9.3 km/h 35 % 0 mm
13:11 20 °C 3.7 °C 1011.7 hPa NNE 8 km/h 8 km/h 34 % 0 mm
13:16 20.2 °C 4.2 °C 1011.7 hPa NNW 9.7 km/h 9.7 km/h 35 % 0 mm
13:21 20.1 °C 4.2 °C 1011.4 hPa WNW 5.6 km/h 5.6 km/h 35 % 0 mm
13:26 20.4 °C 4.1 °C 1011.4 hPa North 9.7 km/h 9.7 km/h 34 % 0 mm
13:31 20.2 °C 3.4 °C 1011.4 hPa NW 7.4 km/h 7.4 km/h 33 % 0 mm
13:36 20.1 °C 3.3 °C 1011.4 hPa NNW 9.3 km/h 9.3 km/h 33 % 0 mm
13:41 20.1 °C 3.7 °C 1011.1 hPa North 5.6 km/h 5.6 km/h 34 % 0 mm
13:46 20 °C 4.1 °C 1011.1 hPa WNW 11.3 km/h 11.3 km/h 35 % 0 mm
13:51 20 °C 3.2 °C 1011.1 hPa NW 8 km/h 8 km/h 33 % 0 mm
13:56 20.2 °C 3.4 °C 1011.1 hPa NW 9.3 km/h 9.3 km/h 33 % 0 mm
14:01 20.1 °C 3.7 °C 1010.7 hPa NNW 5.6 km/h 5.6 km/h 34 % 0 mm
14:06 20.2 °C 4.2 °C 1011.1 hPa WNW 9.7 km/h 9.7 km/h 35 % 0 mm
14:11 20.1 °C 4.6 °C 1010.7 hPa NW 5.6 km/h 5.6 km/h 36 % 0 mm
14:16 20.2 °C 5 °C 1010.7 hPa NW 13 km/h 13 km/h 37 % 0 mm
14:21 20.1 °C 4.6 °C 1010.7 hPa NW 9.3 km/h 9.3 km/h 36 % 0 mm
14:26 20 °C 4.1 °C 1010.7 hPa NW 8 km/h 8 km/h 35 % 0 mm
14:31 20 °C 4.1 °C 1010.4 hPa NNW 8 km/h 8 km/h 35 % 0 mm
14:36 20.1 °C 4.1 °C 1010.4 hPa NW 5.6 km/h 5.6 km/h 35 % 0 mm
14:41 20.2 °C 3.8 °C 1010.4 hPa WNW 7.4 km/h 7.4 km/h 34 % 0 mm
14:46 20.2 °C 3.4 °C 1010 hPa WNW 5.6 km/h 5.6 km/h 33 % 0 mm
14:51 20.3 °C 3.9 °C 1010 hPa WNW 11.1 km/h 11.1 km/h 34 % 0 mm
14:56 20.2 °C 4.2 °C 1010 hPa NNW 5.6 km/h 5.6 km/h 35 % 0 mm
15:01 20.3 °C 4.8 °C 1010 hPa WNW 11.1 km/h 11.1 km/h 36 % 0 mm
15:06 20.4 °C 4.4 °C 1010 hPa WNW 7.4 km/h 7.4 km/h 35 % 0 mm
15:11 20.3 °C 4.7 °C 1010 hPa NW 11.1 km/h 11.1 km/h 36 % 0 mm
15:16 20.1 °C 4.5 °C 1010 hPa WNW 5.6 km/h 5.6 km/h 36 % 0 mm
15:21 20 °C 4.4 °C 1010 hPa NW 13 km/h 13 km/h 36 % 0 mm
15:26 19.8 °C 4.7 °C 1010 hPa ENE 18.5 km/h 18.5 km/h 37 % 0 mm
15:31 19.6 °C 4.9 °C 1009.7 hPa NW 14.8 km/h 14.8 km/h 38 % 0 mm
15:36 19.7 °C 4.6 °C 1009.7 hPa NW 7.4 km/h 7.4 km/h 37 % 0 mm
15:41 19.5 °C 4.4 °C 1009.7 hPa WNW 7.4 km/h 7.4 km/h 37 % 0 mm
15:46 19.4 °C 4.3 °C 1009.7 hPa NW 6.4 km/h 6.4 km/h 37 % 0 mm
15:51 19.3 °C 4.3 °C 1009.7 hPa NW 11.1 km/h 11.1 km/h 37 % 0 mm
15:56 19.2 °C 4.5 °C 1009.7 hPa NW 6.4 km/h 6.4 km/h 38 % 0 mm
16:01 19.1 °C 4.4 °C 1009.7 hPa West 11.1 km/h 11.1 km/h 38 % 0 mm
16:06 19.1 °C 4.4 °C 1009.7 hPa WNW 9.7 km/h 9.7 km/h 38 % 0 mm
16:11 18.9 °C 4.6 °C 1009.7 hPa NW 9.3 km/h 9.3 km/h 39 % 0 mm
16:16 18.7 °C 4.8 °C 1009.7 hPa NW 11.1 km/h 11.1 km/h 40 % 0 mm
16:21 18.6 °C 5.1 °C 1009.7 hPa NW 5.6 km/h 5.6 km/h 41 % 0 mm
16:26 18.5 °C 4.6 °C 1009.7 hPa NW 9.7 km/h 9.7 km/h 40 % 0 mm
16:31 18.3 °C 4.8 °C 1009.7 hPa NW 9.3 km/h 9.3 km/h 41 % 0 mm
16:36 18.2 °C 4.7 °C 1009.7 hPa NW 5.6 km/h 5.6 km/h 41 % 0 mm
16:41 18.1 °C 4.7 °C 1009.7 hPa WNW 7.4 km/h 7.4 km/h 41 % 0 mm
16:46 18 °C 4.6 °C 1009.7 hPa NW 9.3 km/h 9.3 km/h 41 % 0 mm
16:51 17.8 °C 4.7 °C 1009.7 hPa NW 11.1 km/h 11.1 km/h 42 % 0 mm
16:56 17.6 °C 4.9 °C 1009.7 hPa NW 9.3 km/h 9.3 km/h 43 % 0 mm
17:01 17.5 °C 4.8 °C 1009.7 hPa NW 9.3 km/h 9.3 km/h 43 % 0 mm
17:06 17.3 °C 4.6 °C 1009.7 hPa NW 9.3 km/h 9.3 km/h 43 % 0 mm
17:11 17.1 °C 4.4 °C 1009.7 hPa WNW 9.3 km/h 9.3 km/h 43 % 0 mm
17:16 16.9 °C 4.2 °C 1009.7 hPa NW 11.1 km/h 11.1 km/h 43 % 0 mm
17:21 16.7 °C 4.3 °C 1009.7 hPa NW 6.4 km/h 6.4 km/h 44 % 0 mm
17:26 16.4 °C 4.4 °C 1009.7 hPa NW 5.6 km/h 5.6 km/h 45 % 0 mm
17:31 16.2 °C 4.3 °C 1009.7 hPa NW 7.4 km/h 7.4 km/h 45 % 0 mm
17:36 16.1 °C 4.1 °C 1009.7 hPa NW 9.7 km/h 9.7 km/h 45 % 0 mm
17:41 15.8 °C 4.6 °C 1009.7 hPa NW 9.3 km/h 9.3 km/h 47 % 0 mm
17:46 15.7 °C 4.7 °C 1009.7 hPa NW 5.6 km/h 5.6 km/h 48 % 0 mm
17:51 15.5 °C 4.8 °C 1009.7 hPa NW 7.4 km/h 7.4 km/h 49 % 0 mm
17:56 15.3 °C 4.7 °C 1009.7 hPa WNW 8 km/h 8 km/h 49 % 0 mm
18:01 15.2 °C 4.8 °C 1009.7 hPa WNW 4.8 km/h 4.8 km/h 50 % 0 mm
18:07 15.1 °C 4.7 °C 1009.7 hPa WNW 5.6 km/h 5.6 km/h 50 % 0 mm
18:12 14.9 °C 4.6 °C 1009.7 hPa NW 5.6 km/h 5.6 km/h 50 % 0 mm
18:17 14.7 °C 4.4 °C 1009.7 hPa WNW 5.6 km/h 5.6 km/h 50 % 0 mm
18:22 14.6 °C 4.5 °C 1009.7 hPa WNW 6.4 km/h 6.4 km/h 51 % 0 mm
18:27 14.4 °C 4.4 °C 1010 hPa West 5.6 km/h 5.6 km/h 51 % 0 mm
18:32 14.3 °C 4.3 °C 1010 hPa NNW 7.4 km/h 7.4 km/h 51 % 0 mm
18:37 14.2 °C 4.2 °C 1010 hPa WNW 5.6 km/h 5.6 km/h 51 % 0 mm
18:42 14.1 °C 3.8 °C 1010 hPa NW 13 km/h 13 km/h 50 % 0 mm
18:47 14.2 °C 3.3 °C 1010.4 hPa WNW 14.8 km/h 14.8 km/h 48 % 0 mm
18:52 14.1 °C 2.3 °C 1010 hPa NW 13 km/h 13 km/h 45 % 0 mm
18:57 13.9 °C 1.9 °C 1010 hPa WNW 14.8 km/h 14.8 km/h 44 % 0 mm
19:02 13.8 °C 1.8 °C 1010.4 hPa WNW 11.1 km/h 11.1 km/h 44 % 0 mm
19:07 13.7 °C 2 °C 1010.4 hPa NW 18.5 km/h 18.5 km/h 45 % 0 mm
19:12 13.7 °C 1.9 °C 1010.4 hPa NW 14.8 km/h 14.8 km/h 45 % 0 mm
19:17 13.6 °C 2.2 °C 1010.4 hPa West 18.5 km/h 18.5 km/h 46 % 0 mm
19:22 13.5 °C 2.1 °C 1010.4 hPa NW 9.7 km/h 9.7 km/h 46 % 0 mm
19:27 13.3 °C 2.2 °C 1010.4 hPa NNW 12.9 km/h 12.9 km/h 47 % 0 mm
19:32 13.2 °C 2.4 °C 1010.7 hPa NNE 11.3 km/h 11.3 km/h 48 % 0 mm
19:37 13.1 °C 1.4 °C 1010.7 hPa NW 18.5 km/h 18.5 km/h 45 % 0 mm
19:42 13 °C 1.9 °C 1011.1 hPa WNW 19.3 km/h 19.3 km/h 47 % 0 mm
19:47 12.8 °C 1.1 °C 1011.1 hPa NNW 18.5 km/h 18.5 km/h 45 % 0 mm
19:52 12.6 °C 0.6 °C 1011.1 hPa NNE 18.5 km/h 18.5 km/h 44 % 0 mm
19:57 12.3 °C 0.3 °C 1011.4 hPa NW 19.3 km/h 19.3 km/h 44 % 0 mm
20:02 12.1 °C 0.5 °C 1011.4 hPa NNW 18.5 km/h 18.5 km/h 45 % 0 mm
20:07 12 °C 0.4 °C 1011.4 hPa WNW 18.5 km/h 18.5 km/h 45 % 0 mm
20:12 11.9 °C 0.6 °C 1011.4 hPa NW 13 km/h 13 km/h 46 % 0 mm
20:17 11.7 °C 0.8 °C 1011.4 hPa NNE 13 km/h 13 km/h 47 % 0 mm
20:22 11.5 °C 0.8 °C 1011.7 hPa NW 11.1 km/h 11.1 km/h 48 % 0 mm
20:27 11.4 °C 0.8 °C 1011.7 hPa WNW 16.7 km/h 16.7 km/h 48 % 0 mm
20:32 11.3 °C 0.7 °C 1011.7 hPa NW 13 km/h 13 km/h 48 % 0 mm
20:37 11.1 °C 0.5 °C 1011.7 hPa NW 20.4 km/h 20.4 km/h 48 % 0 mm
20:42 11 °C 0.7 °C 1011.7 hPa WNW 13 km/h 13 km/h 49 % 0 mm
20:47 10.9 °C 0.6 °C 1012.1 hPa West 13 km/h 13 km/h 49 % 0 mm
20:52 10.8 °C 0.6 °C 1012.1 hPa WNW 14.8 km/h 14.8 km/h 49 % 0 mm
20:57 10.7 °C 0.7 °C 1012.1 hPa WNW 14.8 km/h 14.8 km/h 50 % 0 mm
21:02 10.7 °C 0.4 °C 1012.1 hPa NW 16.7 km/h 16.7 km/h 49 % 0 mm
21:07 10.7 °C 0.4 °C 1012.1 hPa WNW 20.4 km/h 20.4 km/h 49 % 0 mm
21:12 10.6 °C 0.6 °C 1012.4 hPa NNW 18.5 km/h 18.5 km/h 50 % 0 mm
21:17 10.5 °C 0.5 °C 1012.4 hPa NNE 14.8 km/h 14.8 km/h 50 % 0 mm
21:22 10.4 °C 0.7 °C 1012.4 hPa NW 20.4 km/h 20.4 km/h 51 % 0 mm
21:27 10.3 °C 0.6 °C 1012.4 hPa NW 18.5 km/h 18.5 km/h 51 % 0 mm
21:32 10.2 °C 0.7 °C 1012.4 hPa NNW 16.1 km/h 16.1 km/h 52 % 0 mm
21:37 10.1 °C 0.6 °C 1012.4 hPa North 16.7 km/h 16.7 km/h 52 % 0 mm
21:42 9.9 °C 0.8 °C 1012.4 hPa NE 7.4 km/h 7.4 km/h 53 % 0 mm
21:47 9.8 °C 0.9 °C 1012.8 hPa WNW 9.3 km/h 9.3 km/h 54 % 0 mm
21:52 9.7 °C 0.8 °C 1012.8 hPa NW 11.1 km/h 11.1 km/h 54 % 0 mm
21:57 9.6 °C 1 °C 1012.8 hPa NNW 11.1 km/h 11.1 km/h 55 % 0 mm
22:02 9.6 °C 1.2 °C 1012.8 hPa North 12.9 km/h 12.9 km/h 56 % 0 mm
22:07 9.5 °C 1.2 °C 1012.8 hPa NW 7.4 km/h 7.4 km/h 56 % 0 mm
22:12 9.4 °C 1.3 °C 1012.8 hPa NW 5.6 km/h 5.6 km/h 57 % 0 mm
22:17 9.4 °C 1.6 °C 1012.8 hPa NW 5.6 km/h 5.6 km/h 58 % 0 mm
22:22 9.3 °C 1.4 °C 1012.8 hPa WNW 8 km/h 8 km/h 58 % 0 mm
22:27 9.2 °C 1.3 °C 1012.8 hPa NW 7.4 km/h 7.4 km/h 58 % 0 mm
22:32 9.1 °C 1.2 °C 1012.8 hPa NW 6.4 km/h 6.4 km/h 58 % 0 mm
22:37 9 °C 1.2 °C 1013.1 hPa WNW 11.1 km/h 11.1 km/h 58 % 0 mm
22:42 8.9 °C 1.3 °C 1013.1 hPa WNW 5.6 km/h 5.6 km/h 59 % 0 mm
22:47 8.9 °C 1.3 °C 1013.1 hPa WNW 7.4 km/h 7.4 km/h 59 % 0 mm
22:52 8.8 °C 1.4 °C 1013.1 hPa NNW 5.6 km/h 5.6 km/h 60 % 0 mm
22:57 8.7 °C 1.3 °C 1013.1 hPa NNW 9.3 km/h 9.3 km/h 60 % 0 mm
23:02 8.6 °C 1.3 °C 1013.1 hPa NW 9.3 km/h 9.3 km/h 60 % 0 mm
23:07 8.6 °C 1.3 °C 1013.1 hPa NW 7.4 km/h 7.4 km/h 60 % 0 mm
23:12 8.6 °C 1.2 °C 1013.1 hPa NW 5.6 km/h 6.3 km/h 60 % 0 mm
23:17 8.5 °C 1.2 °C 1013.4 hPa NW 11.1 km/h 11.1 km/h 60 % 0 mm
23:23 8.4 °C 1.1 °C 1013.1 hPa NW 13 km/h 13 km/h 60 % 0 mm
23:28 8.4 °C 1.3 °C 1013.4 hPa WNW 7.4 km/h 7.4 km/h 61 % 0 mm
23:33 8.3 °C 1 °C 1013.4 hPa WNW 13 km/h 13 km/h 60 % 0 mm
23:38 8.3 °C 0.9 °C 1013.4 hPa NW 5.6 km/h 5.6 km/h 60 % 0 mm
23:43 8.1 °C 1.1 °C 1013.4 hPa NW 13 km/h 13 km/h 61 % 0 mm
23:48 8 °C 0.9 °C 1013.4 hPa NW 7.4 km/h 7.4 km/h 61 % 0 mm
23:53 7.8 °C 1 °C 1013.4 hPa West 8 km/h 8 km/h 62 % 0 mm
23:58 7.8 °C 0.7 °C 1013.4 hPa WNW 9.3 km/h 9.3 km/h 61 % 0 mm
Park Place, Exeter, Tulare County, California, USA
Compliments of Weather Underground - 2.75 mb